createdAt,value
2023-01-31T00:04:18.227Z,33.63
2023-01-31T00:10:20.096Z,36.55
2023-01-31T00:16:23.278Z,27.55
2023-01-31T00:22:25.131Z,29.45
2023-01-31T00:28:26.880Z,38.22
2023-01-31T00:34:28.769Z,31.23
2023-01-31T00:40:30.577Z,21.45
2023-01-31T00:46:32.414Z,29.95
2023-01-31T00:52:35.174Z,32.65
2023-01-31T00:58:39.558Z,29.27
2023-01-31T01:04:41.758Z,24.02
2023-01-31T01:10:43.582Z,21.35
2023-01-31T01:16:45.513Z,16.95
2023-01-31T01:22:47.593Z,24.80
2023-01-31T01:28:50.481Z,20.00
2023-01-31T01:34:52.296Z,23.60
2023-01-31T01:40:54.069Z,27.63
2023-01-31T01:46:57.150Z,24.15
2023-01-31T01:53:05.310Z,22.25
2023-01-31T01:59:16.705Z,24.98
2023-01-31T02:05:24.193Z,26.98
2023-01-31T02:11:29.775Z,30.50
2023-01-31T02:17:32.928Z,26.53
2023-01-31T02:23:53.436Z,24.27
2023-01-31T02:30:12.092Z,22.52
2023-01-31T02:36:23.643Z,20.63
2023-01-31T02:42:58.539Z,27.05
2023-01-31T02:49:12.278Z,22.58
2023-01-31T02:55:57.818Z,22.40
2023-01-31T03:02:03.261Z,23.10
2023-01-31T03:08:06.568Z,15.90
2023-01-31T03:14:24.621Z,18.17
2023-01-31T03:26:40.571Z,25.50
2023-01-31T03:33:06.353Z,21.65
2023-01-31T03:39:32.728Z,22.92
2023-01-31T03:45:57.887Z,24.70
2023-01-31T03:52:06.385Z,28.30
2023-01-31T03:58:10.843Z,21.65
2023-01-31T04:04:42.635Z,19.25
2023-01-31T04:10:45.047Z,22.20
2023-01-31T04:16:46.850Z,24.20
2023-01-31T04:22:48.713Z,23.50
2023-01-31T04:28:52.815Z,19.25
2023-01-31T04:34:54.864Z,24.30
2023-01-31T04:40:56.765Z,14.95
2023-01-31T04:46:58.534Z,15.98
2023-01-31T04:53:00.438Z,21.50
2023-01-31T04:59:02.388Z,22.05
2023-01-31T05:05:05.807Z,27.58
2023-01-31T05:11:08.685Z,18.85
2023-01-31T05:17:10.895Z,25.33
2023-01-31T05:23:13.455Z,23.55
2023-01-31T05:29:15.360Z,30.00
2023-01-31T05:35:17.546Z,24.27
2023-01-31T05:41:19.415Z,15.77
2023-01-31T05:47:23.507Z,27.58
2023-01-31T05:53:25.267Z,39.08
2023-01-31T05:59:29.998Z,21.45
2023-01-31T06:05:32.061Z,22.77
2023-01-31T06:11:33.973Z,29.75
2023-01-31T06:17:36.418Z,23.08
2023-01-31T06:23:38.379Z,20.55
2023-01-31T06:29:40.235Z,30.63
2023-01-31T06:35:42.398Z,24.65
2023-01-31T06:41:44.266Z,28.05
2023-01-31T06:47:46.176Z,25.70
2023-01-31T06:53:47.963Z,29.63
2023-01-31T06:59:49.706Z,36.90
2023-01-31T07:05:51.519Z,36.28
2023-01-31T07:11:53.604Z,30.10
2023-01-31T07:17:59.576Z,20.92
2023-01-31T07:24:01.333Z,25.67
2023-01-31T07:30:03.279Z,32.15
2023-01-31T07:36:06.891Z,33.05
2023-01-31T07:42:08.730Z,32.30
2023-01-31T07:48:12.176Z,19.05
2023-01-31T07:54:14.063Z,16.67
2023-01-31T08:00:35.119Z,24.98
2023-01-31T08:06:38.407Z,17.15
2023-01-31T08:12:40.173Z,16.17
2023-01-31T08:18:42.287Z,24.08
2023-01-31T08:24:44.421Z,20.77
2023-01-31T08:30:52.845Z,20.17
2023-01-31T08:37:01.309Z,25.48
2023-01-31T08:43:03.129Z,13.95
2023-01-31T08:49:07.162Z,23.73
2023-01-31T08:55:13.621Z,24.88
2023-01-31T09:01:18.208Z,15.20
2023-01-31T09:07:21.740Z,21.40
2023-01-31T09:13:24.476Z,23.55
2023-01-31T09:19:26.422Z,26.85
2023-01-31T09:25:43.733Z,25.77
2023-01-31T09:31:52.014Z,24.42
2023-01-31T09:37:54.142Z,25.17
2023-01-31T09:44:07.096Z,20.63
2023-01-31T09:50:22.633Z,32.80
2023-01-31T09:56:30.844Z,29.17
2023-01-31T10:02:46.106Z,32.05
2023-01-31T10:08:54.773Z,29.02
2023-01-31T10:15:01.477Z,28.38
2023-01-31T10:21:12.497Z,23.60
2023-01-31T10:27:44.753Z,24.58
2023-01-31T10:34:17.489Z,28.73
2023-01-31T10:40:40.171Z,26.15
2023-01-31T10:46:42.061Z,30.35
2023-01-31T10:53:01.189Z,34.10
2023-01-31T10:59:07.630Z,26.85
2023-01-31T11:05:20.017Z,32.42
2023-01-31T11:11:24.790Z,29.05
2023-01-31T11:17:34.189Z,24.80
2023-01-31T11:23:37.187Z,27.63
2023-01-31T11:29:40.575Z,26.88
2023-01-31T11:35:51.975Z,28.30
2023-01-31T11:41:54.180Z,30.98
2023-01-31T11:47:58.606Z,18.90
2023-01-31T11:54:03.884Z,27.02
2023-01-31T12:00:20.137Z,21.45
2023-01-31T12:06:39.182Z,20.27
2023-01-31T12:12:46.108Z,17.55
2023-01-31T12:19:15.592Z,27.97
2023-01-31T12:25:28.311Z,22.10
2023-01-31T12:31:40.745Z,24.98
2023-01-31T12:38:01.253Z,23.08
2023-01-31T12:44:41.027Z,23.05
2023-01-31T12:51:03.082Z,25.33
2023-01-31T12:57:21.405Z,27.15
2023-01-31T13:03:39.132Z,32.35
2023-01-31T13:09:41.238Z,22.98
2023-01-31T13:16:36.970Z,22.88
2023-01-31T13:22:41.543Z,26.73
2023-01-31T13:29:04.760Z,21.48
2023-01-31T13:35:23.518Z,23.92
2023-01-31T13:41:31.664Z,19.85
2023-01-31T13:47:48.626Z,24.20
2023-01-31T13:54:04.335Z,20.67
2023-01-31T14:00:41.906Z,16.10
2023-01-31T14:06:52.903Z,11.93
2023-01-31T14:13:24.645Z,9.00
2023-01-31T14:19:30.796Z,7.13
2023-01-31T14:25:41.856Z,9.48
2023-01-31T14:31:45.329Z,5.63
2023-01-31T14:38:15.387Z,6.43
2023-01-31T14:44:32.196Z,5.05
2023-01-31T14:50:43.634Z,10.80
2023-01-31T14:56:53.688Z,8.60
2023-01-31T15:03:01.483Z,9.27
2023-01-31T15:09:15.881Z,7.43
2023-01-31T15:15:41.812Z,10.73
2023-01-31T15:21:51.217Z,6.35
2023-01-31T15:27:56.764Z,7.15
2023-01-31T15:34:05.410Z,8.35
2023-01-31T15:40:21.321Z,8.02
2023-01-31T15:53:15.179Z,11.98
2023-01-31T15:59:18.937Z,11.05
2023-01-31T16:05:22.357Z,8.57
2023-01-31T16:11:26.207Z,9.38
2023-01-31T16:17:29.077Z,9.98
2023-01-31T16:23:36.089Z,11.32
2023-01-31T16:29:42.565Z,12.57
2023-01-31T16:35:44.397Z,13.23
2023-01-31T16:41:51.809Z,15.98
2023-01-31T16:48:28.463Z,19.48
2023-01-31T16:54:45.132Z,18.60
2023-01-31T17:00:51.278Z,16.35
2023-01-31T17:07:04.838Z,13.68
2023-01-31T17:13:31.021Z,16.33
2023-01-31T17:19:32.761Z,15.73
2023-01-31T17:25:36.492Z,14.20
2023-01-31T17:31:38.307Z,12.60
2023-01-31T17:37:40.057Z,9.95
2023-01-31T17:43:42.563Z,13.27
2023-01-31T17:49:45.275Z,8.48
2023-01-31T17:55:47.460Z,10.07
2023-01-31T18:01:49.257Z,9.93
2023-01-31T18:07:51.455Z,11.27
2023-01-31T18:13:53.229Z,12.85
2023-01-31T18:19:57.798Z,11.20
2023-01-31T18:25:59.492Z,9.40
2023-01-31T18:32:03.311Z,8.48
2023-01-31T18:38:06.778Z,6.55
2023-01-31T18:44:08.827Z,7.40
2023-01-31T18:50:11.112Z,5.70
2023-01-31T18:56:18.499Z,7.45
2023-01-31T19:02:20.317Z,16.15
2023-01-31T19:08:22.028Z,15.73
2023-01-31T19:14:23.819Z,20.63
2023-01-31T19:20:25.671Z,23.75
2023-01-31T19:26:28.583Z,19.98
2023-01-31T19:32:31.227Z,20.23
2023-01-31T19:38:33.000Z,21.33
2023-01-31T19:44:34.749Z,14.98
2023-01-31T19:50:36.519Z,18.92
2023-01-31T19:56:38.331Z,18.13
2023-01-31T20:02:44.104Z,21.23
2023-01-31T20:08:50.451Z,22.65
2023-01-31T20:14:52.174Z,22.90
2023-01-31T20:20:54.138Z,18.83
2023-01-31T20:26:56.080Z,19.05
2023-01-31T20:32:57.807Z,22.55
2023-01-31T20:38:59.559Z,21.73
2023-01-31T20:45:01.280Z,23.05
2023-01-31T20:51:03.321Z,17.92
2023-01-31T20:57:05.045Z,18.90
2023-01-31T21:03:06.875Z,23.70
2023-01-31T21:09:09.606Z,23.95
2023-01-31T21:15:11.578Z,23.02
2023-01-31T21:21:22.669Z,30.13
2023-01-31T21:27:24.599Z,20.33
2023-01-31T21:33:28.053Z,22.38
2023-01-31T21:39:29.989Z,21.52
2023-01-31T21:45:40.488Z,20.88
2023-01-31T21:51:42.345Z,22.60
2023-01-31T21:57:44.853Z,18.77
2023-01-31T22:03:49.316Z,19.55
2023-01-31T22:09:51.029Z,24.42
2023-01-31T22:15:52.901Z,20.17
2023-01-31T22:21:54.648Z,21.88
2023-01-31T22:27:57.871Z,26.23
2023-01-31T22:34:00.355Z,20.23
2023-01-31T22:40:02.239Z,21.42
2023-01-31T22:46:05.051Z,17.83
2023-01-31T22:52:06.844Z,26.52
2023-01-31T22:58:09.603Z,28.45
2023-01-31T23:04:11.550Z,22.38
2023-01-31T23:10:13.353Z,21.83
2023-01-31T23:16:18.573Z,23.88
2023-01-31T23:22:20.348Z,26.80
2023-01-31T23:28:22.078Z,28.75
2023-01-31T23:34:23.905Z,26.88
2023-01-31T23:40:25.685Z,28.35
2023-01-31T23:46:27.489Z,20.52
2023-01-31T23:52:29.252Z,21.40
2023-01-31T23:58:30.969Z,23.83
